Time;durP1;ratioP1;P1;durP2;ratioP2;P2;SDS_P1;SDS_P2;PMS_P1;PMS_P2;Temp;Humidity;BMP_temperature;BMP_pressure;BME280_temperature;BME280_humidity;BME280_pressure;Samples;Min_cycle;Max_cycle;Signal;HPM_P1;HPM_P2
2022/04/26 03:36:06;;;;;;;11.18;8.80;;;9.90;99.90;;;;;;5036852;28;20204;-70
2022/04/26 03:38:32;;;;;;;9.82;7.60;;;9.80;99.90;;;;;;5037069;28;20216;-71
2022/04/26 03:40:58;;;;;;;8.93;7.10;;;9.80;99.90;;;;;;5036839;28;20706;-70
2022/04/26 03:43:23;;;;;;;12.60;8.50;;;9.90;99.90;;;;;;5036401;28;20404;-70
2022/04/26 03:45:49;;;;;;;12.53;8.50;;;9.90;99.90;;;;;;5036956;28;20327;-70
2022/04/26 03:48:15;;;;;;;9.13;7.53;;;9.90;99.90;;;;;;5036762;28;20166;-70
2022/04/26 03:50:40;;;;;;;13.83;7.80;;;9.90;99.90;;;;;;5036842;28;20174;-70
2022/04/26 03:53:06;;;;;;;10.57;8.00;;;9.90;99.90;;;;;;5036465;28;20185;-71
2022/04/26 03:55:32;;;;;;;13.70;9.83;;;9.90;99.90;;;;;;5036760;28;20193;-71
2022/04/26 03:57:57;;;;;;;11.90;7.80;;;9.90;99.90;;;;;;5036571;28;20174;-70
2022/04/26 04:00:24;;;;;;;15.13;9.27;;;9.90;99.90;;;;;;5036408;28;20233;-70
2022/04/26 04:02:49;;;;;;;11.00;6.90;;;9.90;99.90;;;;;;5036485;28;20182;-70
2022/04/26 04:05:15;;;;;;;11.70;9.70;;;9.90;99.90;;;;;;5036424;28;20193;-70
2022/04/26 04:07:40;;;;;;;7.30;6.10;;;9.90;99.90;;;;;;5036376;28;20537;-70
2022/04/26 04:10:07;;;;;;;10.70;8.50;;;9.90;99.90;;;;;;5036747;28;20174;-70
2022/04/26 04:12:32;;;;;;;11.30;7.18;;;9.90;99.90;;;;;;5018882;28;20194;-70
2022/04/26 04:14:58;;;;;;;13.17;9.10;;;9.80;99.90;;;;;;5035791;28;20216;-70
2022/04/26 04:17:24;;;;;;;8.87;6.40;;;9.90;99.90;;;;;;5036207;28;20213;-70
2022/04/26 04:19:49;;;;;;;9.50;6.00;;;9.80;99.90;;;;;;5036249;28;20280;-70
2022/04/26 04:22:15;;;;;;;14.00;8.43;;;9.80;99.90;;;;;;5036370;28;20164;-71
2022/04/26 04:24:41;;;;;;;9.40;7.17;;;9.80;99.90;;;;;;5035758;28;20304;-70
2022/04/26 04:27:09;;;;;;;12.30;8.63;;;9.90;99.90;;;;;;5035941;28;20509;-70
2022/04/26 04:29:34;;;;;;;9.98;7.70;;;9.80;99.90;;;;;;5036112;28;20166;-71
2022/04/26 04:32:01;;;;;;;11.77;10.00;;;9.80;99.90;;;;;;5036190;28;20209;-71
2022/04/26 04:34:26;;;;;;;9.15;8.23;;;9.90;99.90;;;;;;5035559;28;20224;-71
2022/04/26 04:36:52;;;;;;;9.77;7.40;;;9.90;99.90;;;;;;5035567;28;20607;-71
2022/04/26 04:39:23;;;;;;;9.37;6.90;;;9.90;99.90;;;;;;5034520;28;20208;-71
2022/04/26 04:41:52;;;;;;;13.50;10.40;;;9.90;99.90;;;;;;5034547;28;20170;-70
2022/04/26 04:44:18;;;;;;;6.63;6.03;;;9.90;99.90;;;;;;5035355;28;20162;-70
2022/04/26 04:46:45;;;;;;;9.93;7.97;;;9.90;99.90;;;;;;5034845;28;20197;-70
2022/04/26 04:49:11;;;;;;;14.30;8.35;;;9.90;99.90;;;;;;5035861;28;20205;-71
2022/04/26 04:51:36;;;;;;;10.45;7.43;;;9.80;99.90;;;;;;5035521;28;20641;-71
2022/04/26 04:54:02;;;;;;;7.57;5.87;;;9.80;99.90;;;;;;5035278;28;20213;-70
2022/04/26 04:56:28;;;;;;;8.00;6.87;;;9.80;99.90;;;;;;5035650;28;20237;-71
2022/04/26 04:58:54;;;;;;;11.33;8.67;;;9.90;99.90;;;;;;5035768;28;20505;-70
2022/04/26 05:01:20;;;;;;;11.20;7.07;;;9.80;99.90;;;;;;5035641;28;20202;-70
2022/04/26 05:03:46;;;;;;;14.63;8.48;;;9.90;99.90;;;;;;5034931;28;20264;-70
2022/04/26 05:06:16;;;;;;;11.20;6.93;;;9.90;99.90;;;;;;5035121;28;20205;-71
2022/04/26 05:08:45;;;;;;;8.45;6.85;;;9.90;99.90;;;;;;5035086;28;20457;-70
2022/04/26 05:11:12;;;;;;;12.88;8.68;;;9.90;99.90;;;;;;5035511;28;20538;-70
2022/04/26 05:13:38;;;;;;;12.90;7.90;;;10.00;99.90;;;;;;5034929;28;20174;-70
2022/04/26 05:16:03;;;;;;;11.27;7.73;;;9.90;99.90;;;;;;5033419;28;20204;-71
2022/04/26 05:18:29;;;;;;;13.02;8.00;;;9.90;99.90;;;;;;5034963;28;20492;-70
2022/04/26 05:20:55;;;;;;;14.40;10.90;;;9.90;99.90;;;;;;5035489;28;20170;-71
2022/04/26 05:26:05;;;;;;;10.85;7.38;;;9.90;99.90;;;;;;5034954;28;20273;-73
2022/04/26 05:28:31;;;;;;;11.10;7.97;;;9.90;99.90;;;;;;5035000;28;20597;-71
2022/04/26 05:30:57;;;;;;;11.70;8.07;;;10.00;99.90;;;;;;5034462;28;20180;-72
2022/04/26 05:33:24;;;;;;;9.37;6.13;;;10.00;99.90;;;;;;5034798;28;20197;-72
2022/04/26 05:35:52;;;;;;;14.10;7.85;;;10.00;99.90;;;;;;5034494;28;20439;-70
2022/04/26 05:38:17;;;;;;;10.73;9.32;;;10.00;99.90;;;;;;5034742;28;20170;-73
2022/04/26 05:40:43;;;;;;;7.70;6.70;;;10.00;99.90;;;;;;5034517;28;20592;-74
2022/04/26 05:43:09;;;;;;;12.50;8.20;;;10.00;99.90;;;;;;5033891;28;20182;-69
2022/04/26 05:45:35;;;;;;;7.03;6.17;;;10.00;99.90;;;;;;5033212;28;20741;-69
2022/04/26 05:48:01;;;;;;;7.83;5.57;;;10.00;99.90;;;;;;5034470;28;20411;-69
2022/04/26 05:50:27;;;;;;;8.60;6.80;;;10.10;99.90;;;;;;5034437;28;20178;-73
2022/04/26 05:52:52;;;;;;;7.97;7.13;;;10.10;99.90;;;;;;5034343;28;20932;-73
2022/04/26 05:55:18;;;;;;;12.17;8.73;;;10.10;99.90;;;;;;5033939;28;20197;-74
2022/04/26 05:57:44;;;;;;;8.80;7.67;;;10.10;99.90;;;;;;5033166;28;20182;-74
2022/04/26 06:00:12;;;;;;;8.43;6.43;;;10.20;99.90;;;;;;5034154;28;20224;-73
2022/04/26 06:02:39;;;;;;;12.27;8.85;;;10.30;99.90;;;;;;5034145;28;20450;-73
2022/04/26 06:05:06;;;;;;;8.57;7.80;;;10.30;99.90;;;;;;5033722;28;20192;-74
2022/04/26 06:07:31;;;;;;;12.32;8.60;;;10.30;99.90;;;;;;5034094;28;20170;-73
2022/04/26 06:09:57;;;;;;;9.97;7.77;;;10.20;99.90;;;;;;5033818;28;20174;-73
2022/04/26 06:12:26;;;;;;;8.07;6.77;;;10.20;99.90;;;;;;5033457;28;20185;-73
2022/04/26 06:15:01;;;;;;;8.23;6.25;;;10.30;99.90;;;;;;5032067;28;20500;-73
2022/04/26 06:17:28;;;;;;;10.90;8.43;;;10.30;99.90;;;;;;5033848;28;20200;-73
2022/04/26 06:19:54;;;;;;;10.27;7.53;;;10.40;99.90;;;;;;5033349;28;20198;-73
2022/04/26 06:22:20;;;;;;;11.73;7.23;;;10.30;99.90;;;;;;5033705;28;20561;-74
2022/04/26 06:24:45;;;;;;;13.00;9.57;;;10.40;99.90;;;;;;5033397;28;20625;-74
2022/04/26 06:27:11;;;;;;;13.23;8.50;;;10.30;99.90;;;;;;5033671;28;20170;-73
2022/04/26 06:29:37;;;;;;;12.10;9.33;;;10.40;99.90;;;;;;5033607;28;20257;-74
2022/04/26 06:32:03;;;;;;;12.50;10.10;;;10.30;99.90;;;;;;5033692;28;20172;-73
2022/04/26 06:34:29;;;;;;;9.98;7.78;;;10.30;99.90;;;;;;5032876;28;20420;-73
2022/04/26 06:36:55;;;;;;;9.70;7.17;;;10.30;99.90;;;;;;5032380;28;20664;-73
2022/04/26 06:39:20;;;;;;;9.20;8.10;;;10.30;99.90;;;;;;5033487;28;20205;-73
2022/04/26 06:41:47;;;;;;;13.33;8.50;;;10.30;99.90;;;;;;5033563;28;20405;-74
2022/04/26 06:44:13;;;;;;;9.15;8.27;;;10.30;99.90;;;;;;5033250;28;20166;-73
2022/04/26 06:46:39;;;;;;;12.00;8.43;;;10.30;99.90;;;;;;5033329;28;20186;-73
2022/04/26 06:49:14;;;;;;;7.40;6.57;;;10.40;99.90;;;;;;5033165;28;20184;-76
2022/04/26 06:51:44;;;;;;;11.38;7.95;;;10.40;99.90;;;;;;5033487;28;20536;-73
2022/04/26 06:54:10;;;;;;;11.48;7.50;;;10.40;99.90;;;;;;5032947;28;20170;-74
2022/04/26 06:56:36;;;;;;;11.45;8.93;;;10.40;99.90;;;;;;5031805;28;20204;-73
2022/04/26 06:59:02;;;;;;;9.47;7.67;;;10.30;99.90;;;;;;5033452;28;20201;-74
2022/04/26 07:01:28;;;;;;;10.95;7.75;;;10.30;99.90;;;;;;5033415;28;20566;-73
2022/04/26 07:03:54;;;;;;;7.07;6.33;;;10.40;99.90;;;;;;5032712;28;20691;-73
2022/04/26 07:06:19;;;;;;;7.97;7.20;;;10.40;99.90;;;;;;5033394;28;20194;-73
2022/04/26 07:08:46;;;;;;;9.40;7.77;;;10.50;99.90;;;;;;5033104;28;20244;-74
2022/04/26 07:11:14;;;;;;;9.52;7.80;;;10.50;99.90;;;;;;5033286;28;20257;-73
2022/04/26 07:13:40;;;;;;;9.32;7.07;;;10.60;99.90;;;;;;5032927;28;20198;-73
2022/04/26 07:16:06;;;;;;;13.00;9.63;;;10.60;99.90;;;;;;5033095;28;20210;-73
2022/04/26 07:18:33;;;;;;;7.95;6.80;;;10.60;99.90;;;;;;5032799;28;20249;-73
2022/04/26 07:20:59;;;;;;;8.45;6.63;;;10.50;99.90;;;;;;5033277;28;20166;-73
2022/04/26 07:23:25;;;;;;;8.10;6.20;;;10.40;99.90;;;;;;5032834;28;20174;-73
2022/04/26 07:25:52;;;;;;;11.30;8.50;;;10.30;99.90;;;;;;5033055;28;20213;-73
2022/04/26 07:28:19;;;;;;;8.90;7.85;;;10.30;99.90;;;;;;5033015;28;20588;-73
2022/04/26 07:30:45;;;;;;;9.65;8.63;;;10.20;99.90;;;;;;5033217;28;20173;-74
2022/04/26 07:35:54;;;;;;;15.60;11.10;;;10.20;99.90;;;;;;5032965;28;20528;-74
2022/04/26 07:38:20;;;;;;;11.73;7.67;;;10.20;99.90;;;;;;5033013;28;20264;-73
2022/04/26 07:40:46;;;;;;;10.50;8.00;;;10.20;99.90;;;;;;5031525;28;20202;-73
2022/04/26 07:43:13;;;;;;;9.88;8.90;;;10.30;99.90;;;;;;5032377;28;20208;-73
2022/04/26 07:45:40;;;;;;;12.20;9.57;;;10.30;99.90;;;;;;5032769;28;20190;-74
2022/04/26 07:48:07;;;;;;;13.45;9.13;;;10.50;99.90;;;;;;5031396;28;20227;-73
2022/04/26 07:50:33;;;;;;;16.15;11.30;;;10.70;99.90;;;;;;5032906;28;20526;-73
2022/04/26 07:53:03;;;;;;;15.38;10.00;;;10.80;99.90;;;;;;5031498;28;20224;-73
2022/04/26 07:55:30;;;;;;;12.82;8.98;;;10.90;99.90;;;;;;5032864;28;20200;-74
2022/04/26 07:58:00;;;;;;;10.68;9.02;;;11.00;99.90;;;;;;5032934;28;20170;-74
2022/04/26 08:00:26;;;;;;;12.68;9.77;;;11.00;99.90;;;;;;5032359;28;20244;-74
2022/04/26 08:02:52;;;;;;;13.35;8.38;;;11.10;99.90;;;;;;5032210;28;20656;-74
2022/04/26 08:05:17;;;;;;;10.80;9.30;;;11.10;99.90;;;;;;5032274;28;20189;-73
2022/04/26 08:07:44;;;;;;;10.03;8.93;;;11.20;99.90;;;;;;5032842;28;20174;-73
2022/04/26 08:10:12;;;;;;;8.68;6.20;;;11.30;99.90;;;;;;5032447;28;20174;-74
2022/04/26 08:12:38;;;;;;;7.20;6.28;;;11.30;99.90;;;;;;5032487;28;20499;-74
2022/04/26 08:15:05;;;;;;;7.38;6.57;;;11.30;99.90;;;;;;5031988;28;20214;-74
2022/04/26 08:17:31;;;;;;;11.40;7.55;;;11.30;99.90;;;;;;5031963;28;20253;-73
2022/04/26 08:19:57;;;;;;;9.63;7.17;;;11.30;99.90;;;;;;5030629;28;20329;-74
2022/04/26 08:22:22;;;;;;;8.83;7.03;;;11.30;99.90;;;;;;5034372;28;20413;-73
2022/04/26 08:27:33;;;;;;;9.35;7.57;;;11.30;99.90;;;;;;5035633;28;20212;-73
2022/04/26 08:30:02;;;;;;;12.45;5.15;;;11.40;99.90;;;;;;5035697;28;20171;-74
2022/04/26 08:32:48;;;;;;;8.02;6.05;;;11.40;99.90;;;;;;5036063;28;20186;-74
2022/04/26 08:35:27;;;;;;;7.70;5.78;;;11.40;99.90;;;;;;5035468;28;20552;-74
2022/04/26 08:37:53;;;;;;;7.60;6.90;;;11.50;99.90;;;;;;5035855;28;20175;-74
2022/04/26 08:40:19;;;;;;;8.70;7.20;;;11.60;99.90;;;;;;5035663;28;20195;-74
2022/04/26 08:42:47;;;;;;;5.80;4.73;;;11.70;99.90;;;;;;5034110;28;20180;-74
2022/04/26 08:45:15;;;;;;;7.93;5.77;;;11.90;99.90;;;;;;5035179;28;20430;-75
2022/04/26 08:53:16;;;;;;;5.23;4.73;;;12.50;99.90;;;;;;5035081;28;20498;-73
2022/04/26 08:55:44;;;;;;;6.07;5.47;;;12.80;99.90;;;;;;5035226;28;20533;-74
2022/04/26 08:58:11;;;;;;;6.27;5.50;;;13.40;99.90;;;;;;5034254;28;20391;-74
2022/04/26 09:00:39;;;;;;;4.00;3.70;;;13.90;99.90;;;;;;5035202;28;20971;-75
2022/04/26 09:03:07;;;;;;;5.20;4.80;;;14.30;99.90;;;;;;5034918;28;20432;-75
2022/04/26 09:05:33;;;;;;;6.20;5.10;;;14.60;99.90;;;;;;5035172;28;20451;-74
2022/04/26 09:08:00;;;;;;;6.53;4.93;;;14.70;99.90;;;;;;5035295;28;20414;-74
2022/04/26 09:10:29;;;;;;;4.50;4.10;;;14.70;99.90;;;;;;5034863;28;20414;-73
2022/04/26 09:13:09;;;;;;;5.03;4.53;;;14.70;99.90;;;;;;5034738;28;20513;-73
2022/04/26 09:15:45;;;;;;;6.87;5.93;;;14.80;99.90;;;;;;5034913;28;20416;-73
2022/04/26 09:18:26;;;;;;;5.33;4.80;;;14.70;99.90;;;;;;5033608;28;20484;-73
2022/04/26 09:21:05;;;;;;;5.83;4.57;;;14.80;99.90;;;;;;5035168;28;20809;-74
2022/04/26 09:23:32;;;;;;;5.23;4.77;;;14.80;99.90;;;;;;5033383;28;20393;-74
2022/04/26 09:26:07;;;;;;;7.10;6.40;;;14.80;99.90;;;;;;5034667;28;20443;-72
2022/04/26 09:28:34;;;;;;;5.30;4.80;;;14.80;99.90;;;;;;5034878;28;20381;-73
2022/04/26 09:31:00;;;;;;;6.40;4.70;;;14.70;99.90;;;;;;5034788;28;20510;-73
2022/04/26 09:33:38;;;;;;;4.93;4.53;;;14.50;99.90;;;;;;5032933;28;20923;-73
2022/04/26 09:36:09;;;;;;;5.10;4.50;;;14.30;99.90;;;;;;5034668;28;20426;-74
2022/04/26 09:38:35;;;;;;;4.40;4.00;;;14.10;99.90;;;;;;5034747;28;20413;-72
2022/04/26 09:41:07;;;;;;;5.30;4.60;;;14.00;99.90;;;;;;5032931;28;20448;-72
2022/04/26 09:43:33;;;;;;;5.20;4.80;;;14.00;99.90;;;;;;5033025;28;20409;-73
2022/04/26 09:46:00;;;;;;;4.33;3.90;;;14.20;99.90;;;;;;5034750;28;20836;-74
2022/04/26 09:48:30;;;;;;;5.20;4.53;;;14.60;99.90;;;;;;5034670;28;20201;-73
2022/04/26 09:50:57;;;;;;;4.13;3.83;;;15.30;99.90;;;;;;5034580;28;20384;-72
2022/04/26 09:53:24;;;;;;;6.00;5.50;;;16.10;99.90;;;;;;5034365;28;20384;-72
2022/04/26 09:55:53;;;;;;;5.23;4.73;;;16.60;99.90;;;;;;5034242;28;20476;-73
2022/04/26 09:58:19;;;;;;;5.23;4.57;;;16.70;99.90;;;;;;5034408;28;20408;-71
2022/04/26 10:00:49;;;;;;;5.20;4.63;;;16.70;99.90;;;;;;5034404;28;20455;-73
2022/04/26 10:03:20;;;;;;;5.33;4.50;;;16.60;99.90;;;;;;5033736;28;20954;-73
2022/04/26 10:05:49;;;;;;;4.47;3.80;;;16.70;99.90;;;;;;5034391;28;20417;-71
2022/04/26 10:08:17;;;;;;;5.00;4.53;;;17.00;99.90;;;;;;5034081;28;20939;-73
2022/04/26 10:10:43;;;;;;;5.10;4.60;;;17.70;99.90;;;;;;5034027;28;20756;-72
2022/04/26 10:13:31;;;;;;;4.90;4.23;;;18.30;99.40;;;;;;5033881;28;20420;-74
2022/04/26 10:16:19;;;;;;;5.93;4.57;;;18.70;99.90;;;;;;5033872;28;20450;-73
2022/04/26 10:18:47;;;;;;;3.63;3.33;;;19.40;97.00;;;;;;5032264;28;20474;-73
2022/04/26 10:21:35;;;;;;;3.13;2.93;;;20.30;96.80;;;;;;5032886;28;20771;-72
2022/04/26 10:24:04;;;;;;;3.60;3.30;;;21.50;97.20;;;;;;5032070;28;21008;-72
2022/04/26 10:26:34;;;;;;;4.97;4.47;;;22.30;94.90;;;;;;5033718;28;20421;-72
2022/04/26 10:29:08;;;;;;;3.80;3.50;;;22.60;93.20;;;;;;5033644;28;20378;-74
2022/04/26 10:31:41;;;;;;;3.33;3.07;;;22.20;90.40;;;;;;5034132;28;20404;-74
2022/04/26 10:34:24;;;;;;;3.37;3.17;;;21.80;90.80;;;;;;5033335;28;20380;-73
2022/04/26 10:36:51;;;;;;;3.07;2.87;;;22.00;90.20;;;;;;5033463;28;20468;-72
2022/04/26 10:39:27;;;;;;;2.90;2.70;;;21.80;91.20;;;;;;5033713;28;20941;-75
2022/04/26 10:41:54;;;;;;;3.10;2.80;;;21.80;89.80;;;;;;5033704;28;20521;-75
2022/04/26 10:44:22;;;;;;;3.10;2.90;;;21.60;89.40;;;;;;5032441;28;20913;-74
2022/04/26 10:47:09;;;;;;;2.90;2.70;;;21.00;90.20;;;;;;5033046;28;20409;-74
2022/04/26 10:49:43;;;;;;;3.93;3.30;;;20.90;90.30;;;;;;5033412;28;20390;-74
2022/04/26 10:52:14;;;;;;;13.20;3.30;;;20.80;90.90;;;;;;5032928;28;20420;-71
2022/04/26 10:54:49;;;;;;;3.40;3.10;;;20.80;90.10;;;;;;5032713;28;20447;-75
2022/04/26 10:57:19;;;;;;;3.03;2.77;;;21.30;91.20;;;;;;5033520;28;20382;-76
2022/04/26 10:59:51;;;;;;;6.77;3.10;;;21.80;87.90;;;;;;5032985;28;20459;-74
2022/04/26 11:02:18;;;;;;;3.57;3.27;;;22.20;88.60;;;;;;5033008;28;20420;-80
2022/04/26 11:04:44;;;;;;;3.77;3.40;;;22.50;86.90;;;;;;5032622;28;20424;-78
2022/04/26 11:07:17;;;;;;;4.07;3.77;;;22.10;83.80;;;;;;5032766;28;20402;-80
2022/04/26 11:09:46;;;;;;;9.23;7.30;;;21.30;84.50;;;;;;5033521;28;20379;-73
2022/04/26 11:12:12;;;;;;;3.40;3.20;;;20.90;86.50;;;;;;5032971;28;20890;-72
2022/04/26 11:14:41;;;;;;;4.33;3.90;;;20.30;85.30;;;;;;5032883;28;20391;-76
2022/04/26 11:17:07;;;;;;;3.20;2.90;;;19.90;89.30;;;;;;5033340;28;20252;-71
2022/04/26 11:19:36;;;;;;;2.70;2.50;;;19.50;90.40;;;;;;5033778;28;20456;-75
2022/04/26 11:22:04;;;;;;;2.40;2.30;;;19.40;91.20;;;;;;5034665;28;20169;-70
2022/04/26 11:29:59;;;;;;;4.70;4.30;;;19.50;88.70;;;;;;5033065;28;20378;-73
2022/04/26 11:32:38;;;;;;;4.20;3.90;;;19.40;89.50;;;;;;5032652;28;20766;-71
2022/04/26 11:35:05;;;;;;;4.20;3.80;;;18.70;91.60;;;;;;5032691;28;20224;-72
2022/04/26 11:37:30;;;;;;;4.70;4.30;;;18.00;93.80;;;;;;5033239;28;20524;-75
2022/04/26 11:39:56;;;;;;;3.40;3.20;;;17.20;93.60;;;;;;5032862;28;20488;-72
2022/04/26 11:42:22;;;;;;;4.10;3.80;;;16.60;94.50;;;;;;5033503;28;20205;-73
2022/04/26 11:45:06;;;;;;;4.13;3.73;;;16.20;95.90;;;;;;5032504;28;20180;-74
2022/04/26 11:47:44;;;;;;;4.13;3.73;;;15.70;97.10;;;;;;5032768;28;20210;-74
2022/04/26 11:50:20;;;;;;;4.40;4.03;;;15.40;97.10;;;;;;5029251;28;20448;-71
2022/04/26 11:52:48;;;;;;;4.87;4.47;;;15.20;97.10;;;;;;5031456;28;20913;-72
2022/04/26 11:55:28;;;;;;;6.27;3.13;;;15.20;97.60;;;;;;5022232;28;20439;-73
2022/04/26 11:58:08;;;;;;;4.03;3.03;;;15.20;97.30;;;;;;5036988;28;20412;-72
2022/04/26 12:00:34;;;;;;;3.13;2.93;;;15.20;97.30;;;;;;5037043;28;20458;-74
2022/04/26 12:03:02;;;;;;;4.43;2.77;;;15.30;97.50;;;;;;5036673;28;20516;-72
2022/04/26 12:05:28;;;;;;;2.27;2.07;;;15.50;97.30;;;;;;5036729;28;20198;-71
2022/04/26 12:07:54;;;;;;;2.93;2.70;;;15.60;97.10;;;;;;5036831;28;20375;-72
2022/04/26 12:10:33;;;;;;;2.90;2.60;;;15.60;96.20;;;;;;5037263;28;20495;-70
2022/04/26 12:13:03;;;;;;;2.40;2.23;;;15.60;95.20;;;;;;5036328;28;20749;-72
2022/04/26 12:15:30;;;;;;;2.07;1.90;;;15.60;95.80;;;;;;5036047;28;20428;-73
2022/04/26 12:18:09;;;;;;;2.57;2.40;;;15.50;96.30;;;;;;5036438;28;20405;-71
2022/04/26 12:20:56;;;;;;;2.23;2.03;;;15.50;95.50;;;;;;5036441;28;20467;-71
2022/04/26 12:23:22;;;;;;;2.27;2.17;;;15.70;97.20;;;;;;5036053;28;20790;-71
2022/04/26 12:26:02;;;;;;;2.77;2.53;;;15.80;94.80;;;;;;5035773;28;20433;-73
2022/04/26 12:28:28;;;;;;;2.87;2.67;;;16.00;95.40;;;;;;5036266;28;20772;-71
2022/04/26 12:30:55;;;;;;;2.80;2.40;;;16.10;94.90;;;;;;5035777;28;20395;-70
2022/04/26 12:33:32;;;;;;;5.10;3.33;;;16.10;96.50;;;;;;5035357;28;20429;-69
2022/04/26 12:36:05;;;;;;;3.00;2.80;;;16.20;95.30;;;;;;5035952;28;20435;-71
2022/04/26 12:38:51;;;;;;;3.60;3.30;;;16.20;95.30;;;;;;5035963;28;20388;-71
2022/04/26 12:41:17;;;;;;;3.10;2.90;;;16.20;95.30;;;;;;5035500;28;20429;-72
2022/04/26 12:43:44;;;;;;;4.50;3.30;;;15.90;94.70;;;;;;5035035;28;20414;-72
2022/04/26 12:46:10;;;;;;;3.53;3.23;;;15.70;95.50;;;;;;5034955;28;20206;-70
2022/04/26 12:51:21;;;;;;;3.70;3.40;;;15.40;95.60;;;;;;5035568;28;20178;-71
2022/04/26 12:53:48;;;;;;;2.53;2.33;;;15.10;96.90;;;;;;5035013;28;20742;-70
2022/04/26 12:56:15;;;;;;;2.80;2.60;;;14.90;96.80;;;;;;5035172;28;20430;-71
2022/04/26 12:58:46;;;;;;;2.13;1.93;;;14.60;96.90;;;;;;5035642;28;20495;-70
2022/04/26 13:01:12;;;;;;;1.60;1.50;;;14.40;96.40;;;;;;5035129;28;20486;-69
2022/04/26 13:03:40;;;;;;;1.80;1.70;;;14.20;96.20;;;;;;5034745;28;20776;-70
2022/04/26 13:06:13;;;;;;;1.87;1.77;;;14.20;96.20;;;;;;5035387;28;20748;-70
2022/04/26 13:08:40;;;;;;;2.07;1.93;;;14.20;96.00;;;;;;5032947;28;20467;-73
2022/04/26 13:11:07;;;;;;;2.43;1.70;;;14.20;96.80;;;;;;5033215;28;20439;-72
2022/04/26 13:13:35;;;;;;;2.57;2.30;;;14.00;96.80;;;;;;5032355;28;20915;-73
2022/04/26 13:16:01;;;;;;;1.73;1.63;;;13.90;97.30;;;;;;5032477;28;20463;-71
2022/04/26 13:18:27;;;;;;;1.33;1.20;;;13.70;96.90;;;;;;5033039;28;20496;-71
2022/04/26 13:20:54;;;;;;;1.43;1.33;;;13.50;98.00;;;;;;5032825;28;20466;-71
2022/04/26 13:23:20;;;;;;;1.40;1.33;;;13.50;97.90;;;;;;5033750;28;20486;-71
2022/04/26 13:25:46;;;;;;;1.83;1.73;;;13.50;98.50;;;;;;5034750;28;20537;-70
2022/04/26 13:28:12;;;;;;;1.00;1.00;;;13.60;98.60;;;;;;5034762;28;20397;-72
2022/04/26 13:30:38;;;;;;;1.20;1.10;;;13.70;98.80;;;;;;5033261;28;20478;-72
2022/04/26 13:33:04;;;;;;;1.00;1.00;;;13.80;99.10;;;;;;5034199;28;20652;-74
2022/04/26 13:35:29;;;;;;;1.00;1.00;;;13.90;98.50;;;;;;5034327;28;20439;-69
2022/04/26 13:37:58;;;;;;;0.70;0.70;;;14.10;98.70;;;;;;5034834;28;20173;-71
2022/04/26 13:40:23;;;;;;;1.17;1.17;;;14.30;98.00;;;;;;5034812;28;20202;-72
2022/04/26 13:42:50;;;;;;;1.03;1.03;;;14.40;97.30;;;;;;5034559;28;20390;-71
2022/04/26 13:45:15;;;;;;;0.80;0.80;;;14.50;97.20;;;;;;5034082;28;20220;-73
2022/04/26 13:47:41;;;;;;;1.00;0.90;;;14.70;97.80;;;;;;5032892;28;20388;-73
2022/04/26 13:50:12;;;;;;;1.17;1.13;;;15.00;97.80;;;;;;5034340;28;20659;-73
2022/04/26 13:52:41;;;;;;;1.13;0.87;;;15.30;96.60;;;;;;5034434;28;20575;-72
2022/04/26 13:55:07;;;;;;;1.13;1.13;;;15.60;96.40;;;;;;5034194;28;20434;-71
2022/04/26 13:57:33;;;;;;;1.40;1.30;;;15.80;95.60;;;;;;5034411;28;20399;-72
2022/04/26 13:59:59;;;;;;;1.10;1.10;;;15.80;95.20;;;;;;5034099;28;20466;-71
2022/04/26 14:02:25;;;;;;;0.97;0.97;;;15.90;95.70;;;;;;5034565;28;20416;-71
2022/04/26 14:04:51;;;;;;;1.13;1.13;;;16.00;95.70;;;;;;5033867;28;20432;-70
2022/04/26 14:07:17;;;;;;;1.40;1.30;;;16.10;96.40;;;;;;5034413;28;20380;-71
2022/04/26 14:09:43;;;;;;;1.50;1.40;;;16.10;94.70;;;;;;5034172;28;20174;-72
2022/04/26 14:12:09;;;;;;;1.50;1.40;;;16.00;95.20;;;;;;5034356;28;20416;-73
2022/04/26 14:22:50;;;;;;;1.80;1.70;;;15.50;93.50;;;;;;5033799;28;20439;-73
2022/04/26 14:25:16;;;;;;;1.93;1.83;;;15.40;94.80;;;;;;5033134;28;20467;-72
2022/04/26 14:27:44;;;;;;;2.10;2.00;;;15.30;94.50;;;;;;5033518;28;20177;-72
2022/04/26 14:30:12;;;;;;;2.17;2.07;;;15.20;95.80;;;;;;5033326;28;20474;-71
2022/04/26 14:32:37;;;;;;;1.50;1.40;;;15.20;95.50;;;;;;5033492;28;20802;-71
2022/04/26 14:35:04;;;;;;;1.40;1.30;;;15.10;94.90;;;;;;5032677;28;20431;-72
2022/04/26 14:37:29;;;;;;;2.00;1.90;;;15.00;95.50;;;;;;5033397;28;20264;-72
2022/04/26 14:39:55;;;;;;;2.07;1.97;;;15.00;95.50;;;;;;5031898;28;20526;-71
2022/04/26 14:42:21;;;;;;;2.00;1.90;;;14.90;95.40;;;;;;5033268;28;20744;-71
2022/04/26 14:44:47;;;;;;;1.60;1.50;;;14.80;94.50;;;;;;5032227;28;20196;-72
2022/04/26 14:47:14;;;;;;;1.60;1.50;;;14.60;94.60;;;;;;5033289;28;20925;-70
2022/04/26 14:49:39;;;;;;;2.50;1.63;;;14.40;95.70;;;;;;5033174;28;20411;-72
2022/04/26 14:52:08;;;;;;;2.07;1.97;;;14.30;95.50;;;;;;5032989;28;20402;-71
2022/04/26 14:54:35;;;;;;;1.90;1.80;;;14.20;96.20;;;;;;5031355;28;20283;-71
2022/04/26 14:57:01;;;;;;;2.50;2.30;;;14.10;96.60;;;;;;5032773;28;20437;-73
2022/04/26 14:59:26;;;;;;;1.70;1.60;;;14.10;96.60;;;;;;5033075;28;20481;-71
2022/04/26 15:01:53;;;;;;;1.60;1.50;;;14.10;96.70;;;;;;5033338;28;20909;-69
2022/04/26 15:04:20;;;;;;;1.13;1.10;;;14.30;96.50;;;;;;5032397;28;20180;-72
2022/04/26 15:06:47;;;;;;;1.23;1.13;;;14.40;95.10;;;;;;5032928;28;20440;-71
2022/04/26 15:17:28;;;;;;;1.50;1.40;;;15.00;95.00;;;;;;5013085;28;20405;-73
2022/04/26 15:19:54;;;;;;;2.13;1.97;;;15.00;94.70;;;;;;5013161;28;20460;-72
2022/04/26 15:22:20;;;;;;;1.50;1.40;;;15.00;95.50;;;;;;5020896;28;20390;-70
2022/04/26 15:24:50;;;;;;;1.87;1.73;;;15.00;95.40;;;;;;5032410;28;20488;-71
2022/04/26 15:27:17;;;;;;;1.43;1.33;;;15.00;95.50;;;;;;5032693;28;20458;-70
2022/04/26 15:29:44;;;;;;;1.77;1.67;;;15.00;95.90;;;;;;5032931;28;20475;-72
2022/04/26 15:32:10;;;;;;;1.70;1.53;;;15.00;96.60;;;;;;5035257;28;20459;-70
2022/04/26 15:34:36;;;;;;;1.13;1.13;;;14.90;96.20;;;;;;5036291;28;20455;-72
2022/04/26 15:37:02;;;;;;;1.30;1.20;;;14.90;96.20;;;;;;5036432;28;20432;-70
2022/04/26 15:39:28;;;;;;;1.50;1.40;;;14.90;96.40;;;;;;5036670;28;20479;-71
2022/04/26 15:41:54;;;;;;;1.47;1.37;;;14.70;95.70;;;;;;5036370;28;20766;-71
2022/04/26 15:44:20;;;;;;;1.53;1.43;;;14.50;96.00;;;;;;5035854;28;20584;-74
2022/04/26 15:46:47;;;;;;;2.13;1.90;;;14.40;96.70;;;;;;5036822;28;20514;-71
2022/04/26 15:49:13;;;;;;;1.50;1.40;;;14.30;97.60;;;;;;5036528;28;20223;-71
2022/04/26 15:51:42;;;;;;;2.00;1.80;;;14.30;97.60;;;;;;5036370;28;20383;-71
2022/04/26 15:54:08;;;;;;;1.53;1.43;;;14.20;97.90;;;;;;5034759;28;20269;-73
2022/04/26 15:56:33;;;;;;;1.93;1.83;;;14.20;98.10;;;;;;5035871;28;20448;-71
2022/04/26 15:59:01;;;;;;;2.10;2.00;;;14.20;98.20;;;;;;5035967;28;20633;-70
2022/04/26 16:01:27;;;;;;;2.73;2.53;;;14.10;98.00;;;;;;5036406;28;20226;-71
2022/04/26 16:03:55;;;;;;;1.80;1.70;;;14.20;97.30;;;;;;5035628;28;20510;-71
2022/04/26 16:06:21;;;;;;;2.07;1.80;;;14.20;96.70;;;;;;5035752;28;20201;-70
2022/04/26 16:08:47;;;;;;;2.03;1.93;;;14.20;96.40;;;;;;5036597;28;20404;-73
2022/04/26 16:22:09;;;;;;;1.63;1.53;;;14.10;98.90;;;;;;5035836;28;20448;-71
2022/04/26 16:24:41;;;;;;;1.20;1.20;;;14.00;98.40;;;;;;5035597;28;20887;-71
2022/04/26 16:27:08;;;;;;;1.20;1.10;;;14.00;98.10;;;;;;5036072;28;20176;-71
2022/04/26 16:29:33;;;;;;;1.53;1.47;;;13.90;97.20;;;;;;5035734;28;20431;-69
2022/04/26 16:31:59;;;;;;;1.57;1.47;;;13.90;97.70;;;;;;5035637;28;20411;-71
2022/04/26 16:34:25;;;;;;;1.90;1.80;;;13.90;98.20;;;;;;5035582;28;20539;-69
2022/04/26 16:36:51;;;;;;;1.40;1.30;;;13.80;98.00;;;;;;5035786;28;20199;-69
2022/04/26 16:39:17;;;;;;;3.27;1.67;;;13.70;98.30;;;;;;5035808;28;20601;-70
2022/04/26 16:41:43;;;;;;;1.40;1.30;;;13.60;98.70;;;;;;5034588;28;20410;-70
2022/04/26 16:44:09;;;;;;;2.40;2.20;;;13.40;99.00;;;;;;5035080;28;20501;-70
2022/04/26 16:46:35;;;;;;;2.23;1.73;;;13.20;99.90;;;;;;5035525;28;20430;-72
2022/04/26 16:49:02;;;;;;;4.10;1.43;;;12.90;99.90;;;;;;5035780;28;20406;-70
2022/04/26 16:51:30;;;;;;;1.55;1.45;;;12.80;99.90;;;;;;5035338;28;20430;-69
2022/04/26 16:53:57;;;;;;;1.60;1.50;;;12.70;99.90;;;;;;5026211;28;20272;-69
2022/04/26 16:56:22;;;;;;;1.70;1.60;;;12.50;99.90;;;;;;5035046;28;20513;-69
2022/04/26 16:58:48;;;;;;;1.00;1.00;;;12.40;99.90;;;;;;5035438;28;20890;-68
2022/04/26 17:01:14;;;;;;;2.10;1.57;;;12.30;99.90;;;;;;5035329;28;20563;-69
2022/04/26 17:03:39;;;;;;;2.30;2.10;;;12.20;99.90;;;;;;5034895;28;20210;-69
2022/04/26 17:06:05;;;;;;;1.40;1.30;;;12.10;99.90;;;;;;5034772;28;20546;-69
2022/04/26 17:08:31;;;;;;;1.48;1.17;;;11.90;99.90;;;;;;5022170;28;20577;-68
2022/04/26 17:11:41;;;;;;;1.30;1.20;;;11.80;99.90;;;;;;5020504;28;20183;-70
2022/04/26 17:13:42;;;;;;;1.30;1.20;;;11.60;99.90;;;;;;5032514;28;20171;-69